Flight Briefing for CPX427

Departure Arrival
El Paso International Airport (KELP)
Click to view FAA NOTAMS
Tulsa International Airport (KTUL)
Click to view FAA NOTAMS
Departure Time Arrival Time
N/A N/A
Aircraft Distance
B757-200SF 585nm
Departure METAR Arrival METAR
KELP 271051Z 25013KT 10SM CLR 21/00 A2989 RMK AO2 SLP045 T02110000 KTUL 271053Z 16010KT 10SM FEW075 BKN120 23/20 A2988 RMK AO2 SLP108 P0000 T02330200
Suggested Route
TDOWN3 TDOWN SFL HOMET SPS IRW


View recent IFR Routes data
Notes



Charts and Procedures

Charts for KELP
No chart available
Charts for KTUL
No chart available

Windy.com Weather Map